Terminal Aerodrome Forecast
Issued by NWS

Home | Current Version | Previous Version | Text Only | Print | Product List | Glossary On
Versions: 1 2 3 4 5 6 7 8 9 10 11 12
128
FTUS45 KABQ 281722
TAFTCC
TAF
KTCC 281722Z 2818/2918 33005KT P6SM SKC
     FM282000 10008KT P6SM FEW250
     FM290100 12011KT P6SM SCT200
     FM290600 13006KT P6SM SCT200
     FM291700 17009KT P6SM BKN200=

USA.gov is the U.S. government's official web portal to all federal, state and local government web resources and services.